sensor_id;sensor_type;location;lat;lon;timestamp;pressure;altitude;pressure_sealevel;temperature;humidity
60307;BME280;46155;52.364;6.580;2022-07-29T03:01:01;101517.94;;;14.46;77.05
60307;BME280;46155;52.364;6.580;2022-07-29T03:03:34;101524.69;;;14.41;77.29
60307;BME280;46155;52.364;6.580;2022-07-29T03:06:01;101523.03;;;14.43;77.22
60307;BME280;46155;52.364;6.580;2022-07-29T03:08:28;101519.97;;;14.35;77.29
60307;BME280;46155;52.364;6.580;2022-07-29T03:10:55;101518.13;;;14.34;77.29
60307;BME280;46155;52.364;6.580;2022-07-29T03:13:21;101533.97;;;14.49;77.36
60307;BME280;46155;52.364;6.580;2022-07-29T03:15:47;101525.31;;;14.52;76.47
60307;BME280;46155;52.364;6.580;2022-07-29T03:18:12;101529.81;;;14.54;76.34
60307;BME280;46155;52.364;6.580;2022-07-29T03:20:39;101532.69;;;14.42;76.93
60307;BME280;46155;52.364;6.580;2022-07-29T03:23:04;101530.44;;;14.34;77.00
60307;BME280;46155;52.364;6.580;2022-07-29T03:25:30;101536.22;;;14.26;77.53
60307;BME280;46155;52.364;6.580;2022-07-29T03:27:56;101528.03;;;14.22;77.72
60307;BME280;46155;52.364;6.580;2022-07-29T03:30:22;101536.13;;;14.25;77.69
60307;BME280;46155;52.364;6.580;2022-07-29T03:32:47;101537.75;;;14.23;77.79
60307;BME280;46155;52.364;6.580;2022-07-29T03:35:13;101536.03;;;14.23;77.74
60307;BME280;46155;52.364;6.580;2022-07-29T03:37:39;101538.44;;;14.35;77.71
60307;BME280;46155;52.364;6.580;2022-07-29T03:40:07;101532.88;;;14.45;77.34
60307;BME280;46155;52.364;6.580;2022-07-29T03:42:35;101528.69;;;14.49;76.69
60307;BME280;46155;52.364;6.580;2022-07-29T03:45:04;101520.09;;;14.53;76.88
60307;BME280;46155;52.364;6.580;2022-07-29T03:47:33;101521.81;;;14.53;76.51
60307;BME280;46155;52.364;6.580;2022-07-29T03:50:04;101530.13;;;14.44;76.96
60307;BME280;46155;52.364;6.580;2022-07-29T03:52:30;101539.06;;;14.46;76.94
60307;BME280;46155;52.364;6.580;2022-07-29T03:54:55;101531.44;;;14.36;76.88
60307;BME280;46155;52.364;6.580;2022-07-29T03:57:23;101533.81;;;14.31;77.26
60307;BME280;46155;52.364;6.580;2022-07-29T03:59:51;101535.97;;;14.38;77.33
60307;BME280;46155;52.364;6.580;2022-07-29T04:02:17;101545.25;;;14.46;77.14
60307;BME280;46155;52.364;6.580;2022-07-29T04:04:42;101543.81;;;14.52;76.68
60307;BME280;46155;52.364;6.580;2022-07-29T04:07:12;101542.47;;;14.60;76.19
60307;BME280;46155;52.364;6.580;2022-07-29T04:09:37;101548.16;;;14.66;75.63
60307;BME280;46155;52.364;6.580;2022-07-29T04:12:03;101545.44;;;14.65;76.67
60307;BME280;46155;52.364;6.580;2022-07-29T04:14:28;101545.50;;;14.66;75.85
60307;BME280;46155;52.364;6.580;2022-07-29T04:16:53;101548.31;;;14.54;76.46
60307;BME280;46155;52.364;6.580;2022-07-29T04:19:19;101549.41;;;14.58;76.50
60307;BME280;46155;52.364;6.580;2022-07-29T04:21:44;101549.78;;;14.64;76.12
60307;BME280;46155;52.364;6.580;2022-07-29T04:24:10;101544.03;;;14.71;75.86
60307;BME280;46155;52.364;6.580;2022-07-29T04:26:35;101549.75;;;14.79;75.59
60307;BME280;46155;52.364;6.580;2022-07-29T04:29:00;101557.59;;;14.77;75.65
60307;BME280;46155;52.364;6.580;2022-07-29T04:31:26;101545.03;;;14.73;75.27
60307;BME280;46155;52.364;6.580;2022-07-29T04:33:51;101566.00;;;14.70;75.53
60307;BME280;46155;52.364;6.580;2022-07-29T04:36:16;101562.53;;;14.71;75.43
60307;BME280;46155;52.364;6.580;2022-07-29T04:38:42;101564.69;;;14.78;75.40
60307;BME280;46155;52.364;6.580;2022-07-29T04:41:07;101572.34;;;14.74;74.93
60307;BME280;46155;52.364;6.580;2022-07-29T04:43:34;101561.38;;;14.66;75.35
60307;BME280;46155;52.364;6.580;2022-07-29T04:45:59;101557.19;;;14.55;76.13
60307;BME280;46155;52.364;6.580;2022-07-29T04:48:25;101562.09;;;14.49;76.16
60307;BME280;46155;52.364;6.580;2022-07-29T04:50:50;101561.44;;;14.53;76.16
60307;BME280;46155;52.364;6.580;2022-07-29T04:53:16;101571.84;;;14.50;76.24
60307;BME280;46155;52.364;6.580;2022-07-29T04:55:41;101563.28;;;14.54;76.52
60307;BME280;46155;52.364;6.580;2022-07-29T04:58:07;101557.28;;;14.41;76.58
60307;BME280;46155;52.364;6.580;2022-07-29T05:00:32;101563.13;;;14.36;77.43
60307;BME280;46155;52.364;6.580;2022-07-29T05:02:58;101560.69;;;14.24;77.74
60307;BME280;46155;52.364;6.580;2022-07-29T05:05:23;101551.13;;;14.26;78.02
60307;BME280;46155;52.364;6.580;2022-07-29T05:07:48;101545.84;;;14.26;77.99
60307;BME280;46155;52.364;6.580;2022-07-29T05:10:14;101544.94;;;14.25;77.68
60307;BME280;46155;52.364;6.580;2022-07-29T05:12:39;101543.66;;;14.19;78.04
60307;BME280;46155;52.364;6.580;2022-07-29T05:15:05;101545.16;;;14.14;78.09
60307;BME280;46155;52.364;6.580;2022-07-29T05:17:30;101550.25;;;14.10;78.64
60307;BME280;46155;52.364;6.580;2022-07-29T05:19:55;101543.31;;;14.12;78.25
60307;BME280;46155;52.364;6.580;2022-07-29T05:22:21;101541.88;;;14.18;78.31
60307;BME280;46155;52.364;6.580;2022-07-29T05:24:46;101531.47;;;14.21;78.23
60307;BME280;46155;52.364;6.580;2022-07-29T05:27:12;101547.34;;;14.37;77.70
60307;BME280;46155;52.364;6.580;2022-07-29T05:29:37;101541.25;;;14.38;77.57
60307;BME280;46155;52.364;6.580;2022-07-29T05:32:03;101549.56;;;14.44;77.26
60307;BME280;46155;52.364;6.580;2022-07-29T05:34:29;101553.09;;;14.45;76.95
60307;BME280;46155;52.364;6.580;2022-07-29T05:36:55;101547.19;;;14.34;77.14
60307;BME280;46155;52.364;6.580;2022-07-29T05:39:22;101552.22;;;14.44;76.90
60307;BME280;46155;52.364;6.580;2022-07-29T05:41:47;101562.38;;;14.53;76.20
60307;BME280;46155;52.364;6.580;2022-07-29T05:44:12;101553.34;;;14.50;76.25
60307;BME280;46155;52.364;6.580;2022-07-29T05:46:38;101565.03;;;14.53;76.36
60307;BME280;46155;52.364;6.580;2022-07-29T05:49:04;101564.56;;;14.45;76.67
60307;BME280;46155;52.364;6.580;2022-07-29T05:51:31;101570.88;;;14.48;77.23
60307;BME280;46155;52.364;6.580;2022-07-29T05:53:56;101570.22;;;14.52;76.68
60307;BME280;46155;52.364;6.580;2022-07-29T05:56:21;101581.94;;;14.57;77.01
60307;BME280;46155;52.364;6.580;2022-07-29T05:58:47;101574.56;;;14.51;76.17
60307;BME280;46155;52.364;6.580;2022-07-29T06:01:12;101572.41;;;14.44;76.77
60307;BME280;46155;52.364;6.580;2022-07-29T06:03:37;101579.78;;;14.50;76.28
60307;BME280;46155;52.364;6.580;2022-07-29T06:06:03;101582.34;;;14.63;76.50
60307;BME280;46155;52.364;6.580;2022-07-29T06:08:29;101582.44;;;14.65;76.11
60307;BME280;46155;52.364;6.580;2022-07-29T06:10:54;101585.31;;;14.69;76.19
60307;BME280;46155;52.364;6.580;2022-07-29T06:13:19;101588.13;;;14.72;76.13
60307;BME280;46155;52.364;6.580;2022-07-29T06:15:45;101603.69;;;14.83;75.99
60307;BME280;46155;52.364;6.580;2022-07-29T06:18:11;101612.22;;;14.93;75.54
60307;BME280;46155;52.364;6.580;2022-07-29T06:20:38;101610.69;;;14.97;75.50
60307;BME280;46155;52.364;6.580;2022-07-29T06:23:03;101612.63;;;15.01;75.20
60307;BME280;46155;52.364;6.580;2022-07-29T06:25:30;101614.22;;;14.97;74.97
60307;BME280;46155;52.364;6.580;2022-07-29T06:27:56;101607.50;;;14.88;76.86
60307;BME280;46155;52.364;6.580;2022-07-29T06:30:21;101598.38;;;14.83;79.19
60307;BME280;46155;52.364;6.580;2022-07-29T06:32:47;101598.06;;;14.76;80.84
60307;BME280;46155;52.364;6.580;2022-07-29T06:35:12;101592.53;;;14.72;82.44
60307;BME280;46155;52.364;6.580;2022-07-29T06:37:37;101592.06;;;14.64;83.76
60307;BME280;46155;52.364;6.580;2022-07-29T06:40:03;101593.16;;;14.53;84.14
60307;BME280;46155;52.364;6.580;2022-07-29T06:42:47;101595.38;;;14.45;85.77
60307;BME280;46155;52.364;6.580;2022-07-29T06:45:12;101606.38;;;14.53;84.44
60307;BME280;46155;52.364;6.580;2022-07-29T06:47:38;101593.91;;;14.50;85.01
60307;BME280;46155;52.364;6.580;2022-07-29T06:50:04;101598.66;;;14.41;87.21
60307;BME280;46155;52.364;6.580;2022-07-29T06:52:29;101582.72;;;14.24;86.86
60307;BME280;46155;52.364;6.580;2022-07-29T06:54:55;101591.56;;;14.25;87.80
60307;BME280;46155;52.364;6.580;2022-07-29T06:57:21;101583.75;;;14.26;88.58
60307;BME280;46155;52.364;6.580;2022-07-29T06:59:47;101579.34;;;14.27;90.09
60307;BME280;46155;52.364;6.580;2022-07-29T07:02:12;101568.44;;;14.21;91.78
60307;BME280;46155;52.364;6.580;2022-07-29T07:04:38;101572.72;;;14.34;92.38
60307;BME280;46155;52.364;6.580;2022-07-29T07:07:03;101568.22;;;14.48;92.86
60307;BME280;46155;52.364;6.580;2022-07-29T07:09:28;101560.00;;;14.58;93.39
60307;BME280;46155;52.364;6.580;2022-07-29T07:11:53;101580.03;;;14.69;93.79
60307;BME280;46155;52.364;6.580;2022-07-29T07:14:19;101579.03;;;14.67;94.03
60307;BME280;46155;52.364;6.580;2022-07-29T07:16:44;101583.09;;;14.77;93.82
60307;BME280;46155;52.364;6.580;2022-07-29T07:19:09;101584.75;;;14.60;86.69
60307;BME280;46155;52.364;6.580;2022-07-29T07:21:34;101577.94;;;14.49;89.11
60307;BME280;46155;52.364;6.580;2022-07-29T07:24:00;101574.66;;;14.53;88.19
60307;BME280;46155;52.364;6.580;2022-07-29T07:26:26;101567.91;;;14.58;90.19
60307;BME280;46155;52.364;6.580;2022-07-29T07:28:52;101563.75;;;14.46;91.11
60307;BME280;46155;52.364;6.580;2022-07-29T07:31:17;101567.16;;;14.29;91.74
60307;BME280;46155;52.364;6.580;2022-07-29T07:33:43;101563.22;;;14.37;92.68
60307;BME280;46155;52.364;6.580;2022-07-29T07:36:08;101566.56;;;14.50;93.15
60307;BME280;46155;52.364;6.580;2022-07-29T07:38:33;101585.31;;;14.69;94.79
60307;BME280;46155;52.364;6.580;2022-07-29T07:41:00;101574.13;;;14.90;95.64
60307;BME280;46155;52.364;6.580;2022-07-29T07:43:25;101569.91;;;14.93;95.00
60307;BME280;46155;52.364;6.580;2022-07-29T07:45:50;101560.25;;;14.94;94.19
60307;BME280;46155;52.364;6.580;2022-07-29T07:48:16;101560.59;;;15.00;93.92
60307;BME280;46155;52.364;6.580;2022-07-29T07:50:41;101550.88;;;15.15;96.69
60307;BME280;46155;52.364;6.580;2022-07-29T07:53:07;101557.28;;;15.37;96.28
60307;BME280;46155;52.364;6.580;2022-07-29T07:55:32;101547.63;;;15.21;92.36
60307;BME280;46155;52.364;6.580;2022-07-29T07:57:58;101549.69;;;15.27;94.00
60307;BME280;46155;52.364;6.580;2022-07-29T08:00:23;101548.63;;;15.40;93.23
60307;BME280;46155;52.364;6.580;2022-07-29T08:02:48;101551.88;;;15.52;94.47
60307;BME280;46155;52.364;6.580;2022-07-29T08:05:15;101554.97;;;15.60;92.58
60307;BME280;46155;52.364;6.580;2022-07-29T08:07:43;101551.31;;;15.58;90.87
60307;BME280;46155;52.364;6.580;2022-07-29T08:10:08;101556.22;;;15.50;91.64
60307;BME280;46155;52.364;6.580;2022-07-29T08:12:34;101560.09;;;15.57;92.32
60307;BME280;46155;52.364;6.580;2022-07-29T08:14:59;101572.16;;;15.52;90.39
60307;BME280;46155;52.364;6.580;2022-07-29T08:17:25;101564.66;;;15.59;91.54
60307;BME280;46155;52.364;6.580;2022-07-29T08:19:51;101571.88;;;15.63;92.41
60307;BME280;46155;52.364;6.580;2022-07-29T08:22:17;101571.56;;;15.57;91.12
60307;BME280;46155;52.364;6.580;2022-07-29T08:24:42;101577.88;;;15.43;90.74
60307;BME280;46155;52.364;6.580;2022-07-29T08:27:08;101582.75;;;15.35;90.18
60307;BME280;46155;52.364;6.580;2022-07-29T08:29:33;101577.72;;;15.40;89.48
60307;BME280;46155;52.364;6.580;2022-07-29T08:31:59;101585.41;;;15.52;90.90
60307;BME280;46155;52.364;6.580;2022-07-29T08:34:24;101588.13;;;15.53;90.67
60307;BME280;46155;52.364;6.580;2022-07-29T08:36:49;101584.56;;;15.53;89.44
60307;BME280;46155;52.364;6.580;2022-07-29T08:39:15;101575.97;;;15.57;91.78
60307;BME280;46155;52.364;6.580;2022-07-29T08:41:40;101571.00;;;15.63;91.85
60307;BME280;46155;52.364;6.580;2022-07-29T08:44:05;101579.94;;;15.65;91.68
60307;BME280;46155;52.364;6.580;2022-07-29T08:46:31;101573.13;;;15.70;92.30
60307;BME280;46155;52.364;6.580;2022-07-29T08:48:56;101566.59;;;15.63;91.54
60307;BME280;46155;52.364;6.580;2022-07-29T08:51:22;101573.16;;;15.54;92.77
60307;BME280;46155;52.364;6.580;2022-07-29T08:53:49;101571.81;;;15.62;92.93
60307;BME280;46155;52.364;6.580;2022-07-29T08:56:16;101576.78;;;15.72;92.31
60307;BME280;46155;52.364;6.580;2022-07-29T08:58:43;101581.66;;;15.81;92.29
60307;BME280;46155;52.364;6.580;2022-07-29T09:01:09;101584.25;;;15.79;90.84
60307;BME280;46155;52.364;6.580;2022-07-29T09:03:37;101578.56;;;15.73;92.65
60307;BME280;46155;52.364;6.580;2022-07-29T09:06:03;101569.16;;;15.62;92.36
60307;BME280;46155;52.364;6.580;2022-07-29T09:08:30;101574.66;;;15.65;92.40
60307;BME280;46155;52.364;6.580;2022-07-29T09:10:56;101576.84;;;15.74;92.97
60307;BME280;46155;52.364;6.580;2022-07-29T09:13:22;101577.28;;;15.81;91.69
60307;BME280;46155;52.364;6.580;2022-07-29T09:15:48;101575.63;;;15.83;91.03
60307;BME280;46155;52.364;6.580;2022-07-29T09:20:58;101577.53;;;15.70;90.08
60307;BME280;46155;52.364;6.580;2022-07-29T09:24:11;101582.75;;;15.68;90.72
60307;BME280;46155;52.364;6.580;2022-07-29T09:26:40;101587.53;;;15.75;90.50
60307;BME280;46155;52.364;6.580;2022-07-29T09:29:12;101592.00;;;15.76;89.87
60307;BME280;46155;52.364;6.580;2022-07-29T09:31:40;101592.00;;;15.76;90.17
60307;BME280;46155;52.364;6.580;2022-07-29T09:34:07;101597.97;;;15.72;89.82
60307;BME280;46155;52.364;6.580;2022-07-29T09:36:40;101603.41;;;15.75;89.88
60307;BME280;46155;52.364;6.580;2022-07-29T09:39:06;101605.56;;;15.82;90.86
60307;BME280;46155;52.364;6.580;2022-07-29T09:41:44;101619.34;;;15.93;89.66
60307;BME280;46155;52.364;6.580;2022-07-29T09:44:10;101627.56;;;15.98;90.09
60307;BME280;46155;52.364;6.580;2022-07-29T09:46:35;101624.41;;;16.05;89.01
60307;BME280;46155;52.364;6.580;2022-07-29T09:49:12;101626.03;;;16.03;87.57
60307;BME280;46155;52.364;6.580;2022-07-29T09:51:38;101631.81;;;16.12;89.32
60307;BME280;46155;52.364;6.580;2022-07-29T09:54:26;101635.78;;;16.21;88.92
60307;BME280;46155;52.364;6.580;2022-07-29T09:56:53;101625.41;;;16.25;88.47
60307;BME280;46155;52.364;6.580;2022-07-29T09:59:19;101640.19;;;16.38;89.05
60307;BME280;46155;52.364;6.580;2022-07-29T10:01:52;101644.34;;;16.33;86.29
60307;BME280;46155;52.364;6.580;2022-07-29T10:04:18;101651.69;;;16.39;90.82
60307;BME280;46155;52.364;6.580;2022-07-29T10:07:00;101637.00;;;16.45;90.89
60307;BME280;46155;52.364;6.580;2022-07-29T10:09:26;101632.38;;;16.41;90.81
60307;BME280;46155;52.364;6.580;2022-07-29T10:12:11;101635.97;;;16.42;89.89
60307;BME280;46155;52.364;6.580;2022-07-29T10:14:41;101640.66;;;16.47;88.42
60307;BME280;46155;52.364;6.580;2022-07-29T10:17:07;101640.81;;;16.50;86.15
60307;BME280;46155;52.364;6.580;2022-07-29T10:19:34;101631.31;;;16.56;86.89
60307;BME280;46155;52.364;6.580;2022-07-29T10:22:01;101624.44;;;16.41;83.08
60307;BME280;46155;52.364;6.580;2022-07-29T10:24:28;101624.97;;;16.34;83.88
60307;BME280;46155;52.364;6.580;2022-07-29T10:26:55;101617.34;;;16.40;86.69
60307;BME280;46155;52.364;6.580;2022-07-29T10:29:21;101626.88;;;16.55;87.40
60307;BME280;46155;52.364;6.580;2022-07-29T10:40:26;101609.84;;;16.67;82.17
60307;BME280;46155;52.364;6.580;2022-07-29T10:43:22;101614.38;;;16.70;83.32
60307;BME280;46155;52.364;6.580;2022-07-29T10:45:56;101612.22;;;16.81;84.02
60307;BME280;46155;52.364;6.580;2022-07-29T10:48:22;101607.06;;;16.84;84.02
60307;BME280;46155;52.364;6.580;2022-07-29T10:51:01;101594.22;;;16.92;84.45
60307;BME280;46155;52.364;6.580;2022-07-29T10:53:54;101604.97;;;16.95;84.62
60307;BME280;46155;52.364;6.580;2022-07-29T10:56:24;101602.03;;;16.89;80.29
60307;BME280;46155;52.364;6.580;2022-07-29T11:01:48;101597.63;;;16.89;82.95
60307;BME280;46155;52.364;6.580;2022-07-29T11:07:11;101590.34;;;17.03;83.65
60307;BME280;46155;52.364;6.580;2022-07-29T11:09:37;101580.00;;;17.09;82.11
60307;BME280;46155;52.364;6.580;2022-07-29T11:12:03;101581.06;;;17.13;81.66
60307;BME280;46155;52.364;6.580;2022-07-29T11:17:19;101575.84;;;17.34;82.72
60307;BME280;46155;52.364;6.580;2022-07-29T11:19:44;101570.94;;;17.43;81.35
60307;BME280;46155;52.364;6.580;2022-07-29T11:22:10;101568.34;;;17.64;81.29
60307;BME280;46155;52.364;6.580;2022-07-29T11:24:36;101568.31;;;17.84;80.73
60307;BME280;46155;52.364;6.580;2022-07-29T11:27:09;101563.94;;;17.86;79.87
60307;BME280;46155;52.364;6.580;2022-07-29T11:29:39;101561.22;;;17.84;79.18
60307;BME280;46155;52.364;6.580;2022-07-29T11:32:13;101573.66;;;18.05;79.49
60307;BME280;46155;52.364;6.580;2022-07-29T11:34:40;101574.81;;;18.33;79.72
60307;BME280;46155;52.364;6.580;2022-07-29T11:39:32;101568.94;;;18.40;76.27
60307;BME280;46155;52.364;6.580;2022-07-29T11:45:01;101570.22;;;18.51;74.60
60307;BME280;46155;52.364;6.580;2022-07-29T11:47:28;101570.22;;;18.51;73.27
60307;BME280;46155;52.364;6.580;2022-07-29T11:49:55;101573.00;;;18.75;73.65
60307;BME280;46155;52.364;6.580;2022-07-29T11:52:22;101580.50;;;18.86;73.25
60307;BME280;46155;52.364;6.580;2022-07-29T11:54:49;101577.78;;;18.84;71.66
60307;BME280;46155;52.364;6.580;2022-07-29T11:57:17;101583.94;;;18.83;71.80
60307;BME280;46155;52.364;6.580;2022-07-29T11:59:44;101584.44;;;18.96;71.77
60307;BME280;46155;52.364;6.580;2022-07-29T12:02:11;101591.56;;;18.97;70.12
60307;BME280;46155;52.364;6.580;2022-07-29T12:04:57;101589.78;;;18.96;68.13
60307;BME280;46155;52.364;6.580;2022-07-29T12:07:27;101583.47;;;18.93;68.98
60307;BME280;46155;52.364;6.580;2022-07-29T12:09:53;101588.31;;;19.04;70.03
60307;BME280;46155;52.364;6.580;2022-07-29T12:12:19;101583.13;;;19.07;69.14
60307;BME280;46155;52.364;6.580;2022-07-29T12:14:45;101578.03;;;18.90;67.75
60307;BME280;46155;52.364;6.580;2022-07-29T12:17:29;101585.25;;;18.93;67.48
60307;BME280;46155;52.364;6.580;2022-07-29T12:20:02;101583.13;;;19.07;68.05
60307;BME280;46155;52.364;6.580;2022-07-29T12:22:33;101575.97;;;19.06;68.04
60307;BME280;46155;52.364;6.580;2022-07-29T12:25:08;101574.47;;;19.13;69.16
60307;BME280;46155;52.364;6.580;2022-07-29T12:27:34;101560.63;;;19.47;70.75
60307;BME280;46155;52.364;6.580;2022-07-29T12:30:05;101575.69;;;19.71;66.20
60307;BME280;46155;52.364;6.580;2022-07-29T12:32:35;101567.59;;;19.68;66.73
60307;BME280;46155;52.364;6.580;2022-07-29T12:35:11;101562.81;;;19.83;66.25
60307;BME280;46155;52.364;6.580;2022-07-29T12:37:39;101555.25;;;19.95;65.44
60307;BME280;46155;52.364;6.580;2022-07-29T12:40:06;101564.34;;;20.01;65.18
60307;BME280;46155;52.364;6.580;2022-07-29T12:42:32;101565.69;;;20.15;64.54
60307;BME280;46155;52.364;6.580;2022-07-29T12:44:58;101566.41;;;20.09;64.45
60307;BME280;46155;52.364;6.580;2022-07-29T12:47:23;101560.56;;;20.21;64.57
60307;BME280;46155;52.364;6.580;2022-07-29T12:49:49;101556.84;;;20.16;63.54
60307;BME280;46155;52.364;6.580;2022-07-29T12:52:32;101565.69;;;20.15;63.93
60307;BME280;46155;52.364;6.580;2022-07-29T12:54:58;101558.25;;;20.32;64.58
60307;BME280;46155;52.364;6.580;2022-07-29T12:57:24;101544.31;;;20.41;63.49
60307;BME280;46155;52.364;6.580;2022-07-29T13:00:07;101541.09;;;20.51;62.47
60307;BME280;46155;52.364;6.580;2022-07-29T13:02:34;101547.16;;;20.73;61.70
60307;BME280;46155;52.364;6.580;2022-07-29T13:05:00;101547.19;;;20.74;62.11
60307;BME280;46155;52.364;6.580;2022-07-29T13:07:31;101546.19;;;21.00;60.67
60307;BME280;46155;52.364;6.580;2022-07-29T13:12:35;101549.56;;;21.24;60.38
60307;BME280;46155;52.364;6.580;2022-07-29T13:15:00;101549.56;;;21.24;59.65
60307;BME280;46155;52.364;6.580;2022-07-29T13:17:40;101531.47;;;21.46;59.37
60307;BME280;46155;52.364;6.580;2022-07-29T13:20:08;101547.88;;;21.58;59.11
60307;BME280;46155;52.364;6.580;2022-07-29T13:22:38;101542.75;;;21.36;57.53
60307;BME280;46155;52.364;6.580;2022-07-29T13:25:04;101546.63;;;21.47;57.52
60307;BME280;46155;52.364;6.580;2022-07-29T13:27:34;101546.41;;;21.70;57.49
60307;BME280;46155;52.364;6.580;2022-07-29T13:30:01;101546.50;;;21.74;57.12
60307;BME280;46155;52.364;6.580;2022-07-29T13:32:28;101549.16;;;21.73;57.19
60307;BME280;46155;52.364;6.580;2022-07-29T13:34:54;101549.41;;;21.82;55.42
60307;BME280;46155;52.364;6.580;2022-07-29T13:37:20;101547.91;;;21.93;55.57
60307;BME280;46155;52.364;6.580;2022-07-29T13:39:45;101538.25;;;22.00;55.97
60307;BME280;46155;52.364;6.580;2022-07-29T13:42:13;101536.66;;;22.07;54.10
60307;BME280;46155;52.364;6.580;2022-07-29T13:44:39;101536.13;;;22.20;54.39
60307;BME280;46155;52.364;6.580;2022-07-29T13:47:05;101539.50;;;22.13;53.28
60307;BME280;46155;52.364;6.580;2022-07-29T13:49:31;101538.13;;;22.30;53.29
60307;BME280;46155;52.364;6.580;2022-07-29T13:51:56;101528.81;;;22.13;52.71
60307;BME280;46155;52.364;6.580;2022-07-29T13:54:22;101537.44;;;22.02;52.38
60307;BME280;46155;52.364;6.580;2022-07-29T13:56:47;101552.66;;;22.05;52.17
60307;BME280;46155;52.364;6.580;2022-07-29T13:59:12;101534.16;;;22.13;53.06
60307;BME280;46155;52.364;6.580;2022-07-29T14:01:38;101526.38;;;22.24;52.83
60307;BME280;46155;52.364;6.580;2022-07-29T14:04:06;101531.38;;;22.45;52.87
60307;BME280;46155;52.364;6.580;2022-07-29T14:06:32;101536.09;;;22.57;52.20
60307;BME280;46155;52.364;6.580;2022-07-29T14:08:57;101533.25;;;22.49;50.05
60307;BME280;46155;52.364;6.580;2022-07-29T14:11:22;101535.09;;;22.51;50.50
60307;BME280;46155;52.364;6.580;2022-07-29T14:13:47;101535.06;;;22.50;48.73
60307;BME280;46155;52.364;6.580;2022-07-29T14:16:13;101531.69;;;22.57;48.27
60307;BME280;46155;52.364;6.580;2022-07-29T14:18:38;101528.22;;;22.63;49.52
60307;BME280;46155;52.364;6.580;2022-07-29T14:21:04;101535.50;;;22.68;49.09
60307;BME280;46155;52.364;6.580;2022-07-29T14:23:29;101538.44;;;22.81;49.05
60307;BME280;46155;52.364;6.580;2022-07-29T14:25:54;101536.66;;;22.81;48.57
60307;BME280;46155;52.364;6.580;2022-07-29T14:28:20;101531.34;;;22.83;47.67
60307;BME280;46155;52.364;6.580;2022-07-29T14:30:45;101540.06;;;22.73;47.65
60307;BME280;46155;52.364;6.580;2022-07-29T14:33:11;101528.63;;;22.80;48.65
60307;BME280;46155;52.364;6.580;2022-07-29T14:35:36;101530.53;;;22.85;48.81
60307;BME280;46155;52.364;6.580;2022-07-29T14:38:02;101528.16;;;22.99;48.27
60307;BME280;46155;52.364;6.580;2022-07-29T14:40:30;101529.97;;;23.02;48.56
60307;BME280;46155;52.364;6.580;2022-07-29T14:42:55;101531.84;;;23.08;47.62
60307;BME280;46155;52.364;6.580;2022-07-29T14:45:21;101518.47;;;23.08;47.71
60307;BME280;46155;52.364;6.580;2022-07-29T14:47:46;101524.88;;;23.13;47.99
60307;BME280;46155;52.364;6.580;2022-07-29T14:50:11;101523.22;;;23.19;49.33
60307;BME280;46155;52.364;6.580;2022-07-29T14:52:37;101526.06;;;23.29;50.20
60307;BME280;46155;52.364;6.580;2022-07-29T14:55:03;101516.44;;;23.38;49.82
60307;BME280;46155;52.364;6.580;2022-07-29T14:57:29;101516.47;;;23.40;47.23
60307;BME280;46155;52.364;6.580;2022-07-29T14:59:55;101527.09;;;23.35;47.96
60307;BME280;46155;52.364;6.580;2022-07-29T15:02:20;101520.88;;;23.36;47.51
60307;BME280;46155;52.364;6.580;2022-07-29T15:04:46;101527.41;;;23.51;46.38
60307;BME280;46155;52.364;6.580;2022-07-29T15:07:13;101525.69;;;23.54;46.29
60307;BME280;46155;52.364;6.580;2022-07-29T15:09:38;101513.03;;;23.47;44.58
60307;BME280;46155;52.364;6.580;2022-07-29T15:12:03;101528.28;;;23.50;44.82
60307;BME280;46155;52.364;6.580;2022-07-29T15:14:30;101516.72;;;23.52;45.43
60307;BME280;46155;52.364;6.580;2022-07-29T15:16:56;101524.72;;;23.51;43.96
60307;BME280;46155;52.364;6.580;2022-07-29T15:19:22;101526.25;;;23.36;43.39
60307;BME280;46155;52.364;6.580;2022-07-29T15:21:47;101527.91;;;23.31;44.18
60307;BME280;46155;52.364;6.580;2022-07-29T15:24:12;101519.97;;;23.36;44.88
60307;BME280;46155;52.364;6.580;2022-07-29T15:26:37;101508.28;;;23.31;43.88
60307;BME280;46155;52.364;6.580;2022-07-29T15:29:03;101514.63;;;23.37;45.32
60307;BME280;46155;52.364;6.580;2022-07-29T15:31:28;101524.63;;;23.45;45.10
60307;BME280;46155;52.364;6.580;2022-07-29T15:33:53;101521.81;;;23.38;45.07
60307;BME280;46155;52.364;6.580;2022-07-29T15:36:18;101517.41;;;23.41;46.05
60307;BME280;46155;52.364;6.580;2022-07-29T15:38:44;101512.97;;;23.43;45.39
60307;BME280;46155;52.364;6.580;2022-07-29T15:41:13;101522.75;;;23.41;46.17
60307;BME280;46155;52.364;6.580;2022-07-29T15:43:43;101524.47;;;23.38;46.15
60307;BME280;46155;52.364;6.580;2022-07-29T15:46:08;101517.41;;;23.41;46.62
60307;BME280;46155;52.364;6.580;2022-07-29T15:48:52;101522.16;;;23.57;46.71
60307;BME280;46155;52.364;6.580;2022-07-29T15:51:17;101511.47;;;23.59;46.29
60307;BME280;46155;52.364;6.580;2022-07-29T15:53:42;101514.25;;;23.63;45.63
60307;BME280;46155;52.364;6.580;2022-07-29T15:56:08;101514.06;;;23.54;46.03
60307;BME280;46155;52.364;6.580;2022-07-29T15:58:33;101512.38;;;23.59;46.29
60307;BME280;46155;52.364;6.580;2022-07-29T16:00:58;101511.28;;;23.48;46.19
60307;BME280;46155;52.364;6.580;2022-07-29T16:03:26;101507.69;;;23.47;45.71
60307;BME280;46155;52.364;6.580;2022-07-29T16:05:51;101512.09;;;23.44;46.96
60307;BME280;46155;52.364;6.580;2022-07-29T16:08:16;101508.56;;;23.45;46.11
60307;BME280;46155;52.364;6.580;2022-07-29T16:10:42;101500.34;;;23.37;46.69
60307;BME280;46155;52.364;6.580;2022-07-29T16:13:07;101502.22;;;23.41;46.80
60307;BME280;46155;52.364;6.580;2022-07-29T16:15:32;101508.56;;;23.45;47.23
60307;BME280;46155;52.364;6.580;2022-07-29T16:17:58;101501.44;;;23.47;47.70